Time;durP1;ratioP1;P1;durP2;ratioP2;P2;SDS_P1;SDS_P2;PMS_P1;PMS_P2;Temp;Humidity;BMP_temperature;BMP_pressure;BME280_temperature;BME280_humidity;BME280_pressure;Samples;Min_cycle;Max_cycle;Signal;HPM_P1;HPM_P2
2023/12/09 00:01:43;;;;;;;35.92;15.00;;;;;;;6.30;100.00;101042.84;7406054;19;19914;-75
2023/12/09 00:04:12;;;;;;;33.55;12.57;;;;;;;6.32;100.00;101046.22;7405534;19;20349;-76
2023/12/09 00:06:51;;;;;;;45.67;14.68;;;;;;;6.32;100.00;101049.75;7405741;19;20345;-75
2023/12/09 00:09:20;;;;;;;42.85;14.23;;;;;;;6.36;100.00;101050.28;7405112;19;19922;-76
2023/12/09 00:11:48;;;;;;;43.67;15.02;;;;;;;6.37;100.00;101044.81;7405731;19;19970;-76
2023/12/09 00:14:17;;;;;;;43.83;13.90;;;;;;;6.37;100.00;101046.63;7404567;19;20455;-75
2023/12/09 00:16:46;;;;;;;38.33;12.68;;;;;;;6.38;100.00;101043.78;7405411;19;19921;-75
2023/12/09 00:19:14;;;;;;;39.45;14.38;;;;;;;6.38;100.00;101041.13;7405499;19;19927;-75
2023/12/09 00:21:43;;;;;;;39.30;13.45;;;;;;;6.39;100.00;101040.13;7404987;19;19949;-75
2023/12/09 00:24:14;;;;;;;39.20;13.27;;;;;;;6.43;100.00;101045.22;7405391;19;19919;-75
2023/12/09 00:26:42;;;;;;;34.53;13.15;;;;;;;6.44;100.00;101041.53;7405820;19;19926;-75
2023/12/09 00:29:12;;;;;;;41.90;12.85;;;;;;;6.46;100.00;101051.13;7405431;19;19918;-75
2023/12/09 00:31:40;;;;;;;38.75;12.10;;;;;;;6.50;100.00;101040.97;7405867;19;19915;-75
2023/12/09 00:34:09;;;;;;;41.92;13.05;;;;;;;6.50;100.00;101041.81;7406137;19;19918;-75
2023/12/09 00:36:37;;;;;;;35.15;11.93;;;;;;;6.51;100.00;101038.16;7404101;19;19918;-76
2023/12/09 00:39:06;;;;;;;37.65;12.63;;;;;;;6.52;100.00;101039.81;7405541;19;19919;-76
2023/12/09 00:41:37;;;;;;;43.67;12.43;;;;;;;6.53;100.00;101046.00;7404721;19;19918;-76
2023/12/09 00:44:06;;;;;;;42.92;12.98;;;;;;;6.54;100.00;101047.69;7405334;19;19918;-76
2023/12/09 00:46:35;;;;;;;41.28;13.43;;;;;;;6.54;100.00;101055.72;7403772;19;19951;-75
2023/12/09 00:49:03;;;;;;;41.20;14.10;;;;;;;6.54;100.00;101053.91;7404669;19;19915;-76
2023/12/09 00:51:32;;;;;;;40.15;12.70;;;;;;;6.56;100.00;101051.09;7403734;19;20273;-76
2023/12/09 00:54:00;;;;;;;44.47;12.68;;;;;;;6.57;100.00;101052.75;7405021;19;19927;-75
2023/12/09 00:56:29;;;;;;;32.53;12.48;;;;;;;6.58;100.00;101049.09;7402946;19;19933;-75
2023/12/09 00:59:00;;;;;;;39.97;13.45;;;;;;;6.57;100.00;101042.91;7404642;19;19919;-75
2023/12/09 01:01:30;;;;;;;36.30;12.65;;;;;;;6.58;100.00;101043.75;7404253;19;19919;-76
2023/12/09 01:03:59;;;;;;;42.80;12.98;;;;;;;6.59;100.00;101045.44;7403931;19;19922;-75
2023/12/09 01:06:28;;;;;;;36.42;11.52;;;;;;;6.59;100.00;101040.09;7403590;19;19926;-76
2023/12/09 01:08:56;;;;;;;34.55;11.32;;;;;;;6.59;100.00;101045.44;7403563;19;19914;-75
2023/12/09 01:11:45;;;;;;;36.50;11.63;;;;;;;6.60;100.00;101039.09;7403235;19;20073;-76
2023/12/09 01:14:17;;;;;;;37.35;12.55;;;;;;;6.61;100.00;101046.97;7403900;19;19929;-75
2023/12/09 01:16:45;;;;;;;35.72;12.75;;;;;;;6.62;100.00;101037.94;7404894;19;20331;-76
2023/12/09 01:19:14;;;;;;;37.90;12.90;;;;;;;6.63;100.00;101036.13;7404606;19;20360;-76
2023/12/09 01:21:43;;;;;;;34.65;10.50;;;;;;;6.64;100.00;101032.47;7404130;19;19919;-76
2023/12/09 01:24:11;;;;;;;36.15;11.88;;;;;;;6.64;100.00;101024.44;7403344;19;20252;-75
2023/12/09 01:27:00;;;;;;;40.47;12.65;;;;;;;6.63;100.00;101030.75;7401991;19;19929;-75
2023/12/09 01:29:32;;;;;;;29.50;12.18;;;;;;;6.64;100.00;101016.41;7403877;19;19923;-75
2023/12/09 01:32:00;;;;;;;35.20;12.75;;;;;;;6.66;100.00;101023.28;7403466;19;19974;-76
2023/12/09 01:34:31;;;;;;;34.70;10.85;;;;;;;6.68;100.00;101029.34;7403876;19;19941;-77
2023/12/09 01:37:00;;;;;;;35.35;11.68;;;;;;;6.69;100.00;101030.16;7403301;19;19935;-76
2023/12/09 01:39:29;;;;;;;35.08;11.88;;;;;;;6.69;100.00;101027.47;7404077;19;19925;-76
2023/12/09 01:41:57;;;;;;;33.60;11.48;;;;;;;6.70;100.00;101029.16;7403361;19;20341;-75
2023/12/09 01:44:26;;;;;;;34.28;11.52;;;;;;;6.71;100.00;101037.06;7403764;19;19910;-75
2023/12/09 01:47:17;;;;;;;40.90;11.88;;;;;;;6.73;100.00;101035.06;7402546;19;19933;-75
2023/12/09 01:49:46;;;;;;;35.10;12.45;;;;;;;6.73;100.00;101035.06;7402903;19;20002;-75
2023/12/09 01:52:15;;;;;;;33.45;11.63;;;;;;;6.73;100.00;101037.75;7404006;19;19921;-76
2023/12/09 01:54:43;;;;;;;41.95;11.85;;;;;;;6.75;100.00;101040.28;7403851;19;19989;-75
2023/12/09 01:57:32;;;;;;;34.47;10.10;;;;;;;6.75;100.00;101035.78;7403530;19;19922;-75
2023/12/09 02:00:01;;;;;;;33.50;11.38;;;;;;;6.75;100.00;101038.44;7405293;19;19914;-75
2023/12/09 02:02:32;;;;;;;32.13;12.52;;;;;;;6.76;100.00;101033.94;7402907;19;19918;-76
2023/12/09 02:05:02;;;;;;;40.17;13.95;;;;;;;6.78;100.00;101042.66;7403821;19;19911;-75
2023/12/09 02:07:31;;;;;;;39.47;11.70;;;;;;;6.79;100.00;101047.03;7399701;19;20400;-75
2023/12/09 02:10:00;;;;;;;35.28;11.18;;;;;;;6.79;100.00;101044.34;7403379;19;20307;-75
2023/12/09 02:12:34;;;;;;;41.53;11.32;;;;;;;6.82;100.00;101046.72;7402309;19;19918;-75
2023/12/09 02:15:08;;;;;;;34.88;11.55;;;;;;;6.83;100.00;101032.34;7403028;19;19915;-75
2023/12/09 02:17:45;;;;;;;41.22;11.60;;;;;;;6.84;100.00;101026.00;7402411;19;19922;-75
2023/12/09 02:20:14;;;;;;;45.78;11.93;;;;;;;6.84;100.00;101021.50;7402825;19;19926;-75
2023/12/09 02:22:43;;;;;;;28.00;11.75;;;;;;;6.83;100.00;101011.78;7399821;19;20381;-75
2023/12/09 02:25:14;;;;;;;34.22;10.80;;;;;;;6.84;100.00;101007.25;7401827;19;20362;-75
2023/12/09 02:27:49;;;;;;;33.25;10.65;;;;;;;6.82;100.00;101010.09;7403341;19;19925;-75
2023/12/09 02:30:26;;;;;;;30.70;10.18;;;;;;;6.82;100.00;101004.72;7402248;19;19930;-75
2023/12/09 02:32:58;;;;;;;34.60;11.00;;;;;;;6.82;100.00;101011.91;7402251;19;19918;-75
2023/12/09 02:35:28;;;;;;;32.40;10.80;;;;;;;6.83;100.00;101002.91;7401812;19;19911;-75
2023/12/09 02:37:57;;;;;;;27.52;11.15;;;;;;;6.84;100.00;101001.91;7401762;19;19925;-75
2023/12/09 02:40:31;;;;;;;33.30;11.85;;;;;;;6.85;100.00;101003.59;7402447;19;19923;-75
2023/12/09 02:43:00;;;;;;;35.25;11.25;;;;;;;6.84;100.00;101005.44;7401261;19;19928;-75
2023/12/09 02:45:30;;;;;;;28.83;10.20;;;;;;;6.85;100.00;101000.94;7402434;19;19922;-75
2023/12/09 02:48:18;;;;;;;28.38;10.45;;;;;;;6.87;100.00;100992.72;7400388;19;20246;-75
2023/12/09 02:50:47;;;;;;;27.02;10.40;;;;;;;6.87;100.00;100984.69;7401529;19;20310;-75
2023/12/09 02:53:16;;;;;;;39.13;11.20;;;;;;;6.90;100.00;100987.94;7401143;19;19974;-75
2023/12/09 02:55:47;;;;;;;39.15;10.20;;;;;;;6.89;100.00;100980.88;7401104;19;19925;-75
2023/12/09 02:58:16;;;;;;;35.25;10.32;;;;;;;6.90;100.00;100979.91;7400775;19;19926;-75
2023/12/09 03:00:45;;;;;;;32.67;11.82;;;;;;;6.90;100.00;100979.91;7401684;19;19918;-75
2023/12/09 03:03:14;;;;;;;35.53;10.20;;;;;;;6.92;100.00;100977.91;7400511;19;20547;-76
2023/12/09 03:05:42;;;;;;;40.13;11.15;;;;;;;6.92;100.00;100980.56;7401775;19;19962;-75
2023/12/09 03:08:11;;;;;;;26.95;10.10;;;;;;;6.91;100.00;100976.19;7401229;19;19927;-76
2023/12/09 03:10:40;;;;;;;22.90;9.27;;;;;;;6.91;100.00;100962.81;7401321;19;19919;-75
2023/12/09 03:13:11;;;;;;;31.02;9.90;;;;;;;6.91;100.00;100973.53;7400135;19;19944;-75
2023/12/09 03:15:40;;;;;;;28.63;10.93;;;;;;;6.92;100.00;100969.88;7400918;19;19911;-75
2023/12/09 03:18:08;;;;;;;26.10;10.27;;;;;;;6.92;100.00;100961.81;7400518;19;19918;-75
2023/12/09 03:20:37;;;;;;;26.75;9.45;;;;;;;6.94;100.00;100956.34;7406232;19;19966;-75
2023/12/09 03:23:06;;;;;;;26.35;11.27;;;;;;;6.95;100.00;100958.00;7405832;19;19934;-75
2023/12/09 03:25:34;;;;;;;35.20;9.93;;;;;;;6.97;100.00;100958.69;7406697;19;19938;-75
2023/12/09 03:28:03;;;;;;;27.30;10.13;;;;;;;6.98;100.00;100953.19;7407288;19;20465;-75
2023/12/09 03:30:35;;;;;;;25.95;9.30;;;;;;;6.99;100.00;100952.19;7405653;19;20260;-76
2023/12/09 03:33:03;;;;;;;22.00;8.50;;;;;;;6.99;100.00;100946.00;7406852;19;20355;-75
2023/12/09 03:35:32;;;;;;;34.90;10.23;;;;;;;7.00;100.00;100951.19;7405626;19;19939;-75
2023/12/09 03:38:00;;;;;;;29.00;9.60;;;;;;;7.00;100.00;100951.19;7406730;19;20291;-75
2023/12/09 03:40:29;;;;;;;25.25;10.18;;;;;;;7.01;100.00;100944.00;7405612;19;19918;-75
2023/12/09 03:42:57;;;;;;;29.00;9.52;;;;;;;7.00;100.00;100940.47;7407233;19;19922;-76
2023/12/09 03:45:26;;;;;;;25.67;9.38;;;;;;;7.01;100.00;100941.31;7405540;19;19952;-76
2023/12/09 03:47:57;;;;;;;31.98;9.85;;;;;;;7.03;100.00;100939.34;7406337;19;19926;-75
2023/12/09 03:50:26;;;;;;;30.48;10.35;;;;;;;7.03;100.00;100950.88;7406262;19;20373;-76
2023/12/09 03:52:54;;;;;;;32.05;8.68;;;;;;;7.04;100.00;100944.53;7406282;19;19962;-76
2023/12/09 03:55:23;;;;;;;30.85;9.27;;;;;;;7.04;100.00;100941.84;7405272;19;20261;-76
2023/12/09 03:57:52;;;;;;;25.60;9.07;;;;;;;7.05;100.00;100937.34;7405535;19;19922;-76
2023/12/09 04:00:22;;;;;;;25.52;8.55;;;;;;;7.05;100.00;100934.66;7405050;19;20193;-75
2023/12/09 04:02:51;;;;;;;28.63;9.63;;;;;;;7.07;100.00;100936.22;7406058;19;19923;-75
2023/12/09 04:05:22;;;;;;;32.35;9.52;;;;;;;7.07;100.00;100930.00;7405708;19;19922;-76
2023/12/09 04:07:51;;;;;;;27.30;8.80;;;;;;;7.07;100.00;100938.91;7406905;19;19922;-75
2023/12/09 04:10:19;;;;;;;27.67;8.45;;;;;;;7.08;100.00;100935.19;7407811;19;19918;-75
2023/12/09 04:12:50;;;;;;;30.58;8.73;;;;;;;7.08;100.00;100935.19;7405685;19;19930;-76
2023/12/09 04:15:19;;;;;;;27.50;8.13;;;;;;;7.08;100.00;100934.34;7405037;19;19915;-76
2023/12/09 04:17:47;;;;;;;36.20;8.85;;;;;;;7.08;100.00;100943.25;7405636;19;19919;-76
2023/12/09 04:20:16;;;;;;;30.75;9.27;;;;;;;7.09;100.00;100936.91;7405449;19;20382;-76
2023/12/09 04:22:48;;;;;;;24.02;7.95;;;;;;;7.09;100.00;100936.91;7404635;19;19914;-76
2023/12/09 04:25:16;;;;;;;24.30;8.65;;;;;;;7.09;100.00;100941.41;7405389;19;19943;-76
2023/12/09 04:27:45;;;;;;;24.63;7.55;;;;;;;7.10;100.00;100941.25;7404685;19;19914;-76
2023/12/09 04:30:14;;;;;;;22.42;7.75;;;;;;;7.09;100.00;100950.28;7404795;19;19915;-76
2023/12/09 04:32:44;;;;;;;15.93;7.72;;;;;;;7.10;100.00;100937.75;7404212;19;19923;-76
2023/12/09 04:35:12;;;;;;;23.98;7.30;;;;;;;7.09;100.00;100942.25;7405043;19;19947;-76
2023/12/09 04:37:41;;;;;;;22.23;7.57;;;;;;;7.09;100.00;100941.41;7404861;19;19917;-76
2023/12/09 04:40:12;;;;;;;18.20;8.13;;;;;;;7.09;100.00;100938.72;7404868;19;19943;-76
2023/12/09 04:42:42;;;;;;;23.02;7.93;;;;;;;7.09;100.00;100949.44;7404668;19;19918;-76
2023/12/09 04:45:11;;;;;;;24.85;7.28;;;;;;;7.08;100.00;100940.56;7404555;19;19944;-77
2023/12/09 04:47:40;;;;;;;29.23;8.35;;;;;;;7.07;100.00;100940.72;7405483;19;19922;-75
2023/12/09 04:50:10;;;;;;;20.55;7.55;;;;;;;7.07;100.00;100943.41;7404817;19;19922;-76
2023/12/09 04:52:59;;;;;;;24.02;7.60;;;;;;;7.05;100.00;100946.22;7403752;19;19929;-75
2023/12/09 04:55:30;;;;;;;20.58;6.85;;;;;;;7.04;100.00;100928.47;7403975;19;19943;-76
2023/12/09 04:57:59;;;;;;;23.05;7.30;;;;;;;7.03;100.00;100932.13;7404315;19;19918;-76
2023/12/09 05:00:28;;;;;;;19.05;6.55;;;;;;;7.03;100.00;100932.13;7403942;19;19919;-76
2023/12/09 05:02:56;;;;;;;31.75;7.50;;;;;;;7.02;100.00;100917.09;7404960;19;19921;-76
2023/12/09 05:05:25;;;;;;;22.63;7.13;;;;;;;7.02;100.00;100913.56;7404029;19;19967;-76
2023/12/09 05:07:54;;;;;;;22.63;6.72;;;;;;;7.01;100.00;100927.94;7404668;19;19919;-76
2023/12/09 05:10:22;;;;;;;23.45;6.65;;;;;;;7.00;100.00;100913.69;7404057;19;19918;-75
2023/12/09 05:12:53;;;;;;;20.35;6.32;;;;;;;7.00;100.00;100916.38;7403184;19;19922;-76
2023/12/09 05:15:22;;;;;;;18.35;7.18;;;;;;;6.98;100.00;100925.56;7404430;19;19954;-76
2023/12/09 05:17:51;;;;;;;18.23;7.25;;;;;;;7.00;100.00;100915.53;7404050;19;19991;-76
2023/12/09 05:20:19;;;;;;;23.42;6.60;;;;;;;6.98;100.00;100909.50;7404182;19;19914;-76
2023/12/09 05:22:48;;;;;;;20.40;6.88;;;;;;;6.97;100.00;100914.00;7403766;19;19926;-76
2023/12/09 05:25:17;;;;;;;23.83;6.70;;;;;;;6.95;100.00;100899.91;7404520;19;19933;-76
2023/12/09 05:27:45;;;;;;;18.85;6.95;;;;;;;6.94;100.00;100900.94;7403786;19;19915;-75
2023/12/09 05:30:16;;;;;;;22.23;6.13;;;;;;;6.93;100.00;100912.63;7403931;19;19943;-76
2023/12/09 05:32:46;;;;;;;20.60;6.55;;;;;;;6.94;100.00;100908.13;7403646;19;19933;-76
2023/12/09 05:35:14;;;;;;;21.75;6.40;;;;;;;6.93;100.00;100911.78;7403907;19;19955;-76
2023/12/09 05:37:43;;;;;;;25.35;6.40;;;;;;;6.92;100.00;100915.47;7404082;19;19919;-76
2023/12/09 05:40:13;;;;;;;28.05;6.72;;;;;;;6.92;100.00;100912.78;7403298;19;19911;-76
2023/12/09 05:42:41;;;;;;;23.52;6.40;;;;;;;6.90;100.00;100904.91;7400993;19;19918;-76
2023/12/09 05:45:11;;;;;;;25.80;7.13;;;;;;;6.91;100.00;100908.41;7403562;19;19957;-76
2023/12/09 05:47:42;;;;;;;21.75;6.68;;;;;;;6.90;100.00;100904.06;7404257;19;19922;-76
2023/12/09 05:50:12;;;;;;;17.40;5.93;;;;;;;6.89;100.00;100908.59;7403092;19;20299;-76
2023/12/09 05:52:40;;;;;;;23.33;6.82;;;;;;;6.89;100.00;100908.59;7403318;19;19914;-75
2023/12/09 05:55:09;;;;;;;22.38;7.40;;;;;;;6.88;100.00;100901.53;7403269;19;19917;-75
2023/12/09 05:57:38;;;;;;;20.13;6.78;;;;;;;6.86;100.00;100906.19;7403543;19;19926;-76
2023/12/09 06:00:08;;;;;;;21.45;6.40;;;;;;;6.86;100.00;100911.53;7403589;19;20333;-76
2023/12/09 06:02:37;;;;;;;24.48;7.40;;;;;;;6.86;100.00;100908.88;7403610;19;19947;-75
2023/12/09 06:05:08;;;;;;;18.67;5.80;;;;;;;6.84;100.00;100897.47;7403019;19;19933;-76
2023/12/09 06:07:34;;;;;;;24.23;7.07;;;;;;;6.85;100.00;100896.50;7403777;19;19943;-75
2023/12/09 06:10:03;;;;;;;15.85;6.35;;;;;;;6.81;100.00;100893.28;7402397;19;19919;-76
2023/12/09 06:12:31;;;;;;;19.10;6.82;;;;;;;6.81;100.00;100889.75;7403282;19;20356;-75
2023/12/09 06:15:00;;;;;;;22.80;6.53;;;;;;;6.80;100.00;100891.59;7402623;19;20353;-75
2023/12/09 06:17:29;;;;;;;18.52;5.82;;;;;;;6.79;100.00;100887.22;7404074;19;19919;-75
2023/12/09 06:19:58;;;;;;;22.73;7.15;;;;;;;6.79;100.00;100881.88;7404990;19;19914;-75
2023/12/09 06:22:29;;;;;;;21.33;7.05;;;;;;;6.79;100.00;100881.03;7403168;19;19922;-75
2023/12/09 06:24:58;;;;;;;20.80;6.22;;;;;;;6.77;100.00;100873.13;7403010;19;19946;-76
2023/12/09 06:27:26;;;;;;;20.77;5.82;;;;;;;6.76;100.00;100866.13;7402621;19;19922;-76
2023/12/09 06:29:55;;;;;;;23.13;6.38;;;;;;;6.76;100.00;100859.91;7401957;19;20336;-75
2023/12/09 06:32:44;;;;;;;20.42;6.93;;;;;;;6.75;100.00;100860.91;7400956;19;19941;-76
2023/12/09 06:35:13;;;;;;;19.65;6.30;;;;;;;6.74;100.00;100859.22;7403013;19;19922;-75
2023/12/09 06:37:44;;;;;;;27.05;7.20;;;;;;;6.74;100.00;100861.91;7402408;19;19946;-75
2023/12/09 06:40:14;;;;;;;23.17;7.00;;;;;;;6.74;100.00;100853.88;7402282;19;19919;-75
2023/12/09 06:42:42;;;;;;;23.95;7.30;;;;;;;6.75;100.00;100852.88;7402406;19;19946;-75
2023/12/09 06:45:11;;;;;;;24.17;6.97;;;;;;;6.73;100.00;100844.97;7402228;19;19914;-75
2023/12/09 06:47:40;;;;;;;19.42;5.95;;;;;;;6.74;100.00;100837.81;7401950;19;19950;-75
2023/12/09 06:50:09;;;;;;;21.70;6.45;;;;;;;6.75;100.00;100843.00;7401598;19;20026;-75
2023/12/09 06:52:39;;;;;;;19.23;7.30;;;;;;;6.75;100.00;100847.53;7402040;19;19922;-75
2023/12/09 06:55:10;;;;;;;21.77;7.70;;;;;;;6.74;100.00;100840.47;7412103;19;19919;-76
2023/12/09 06:57:39;;;;;;;23.27;6.72;;;;;;;6.75;100.00;100836.81;7416144;19;19918;-75
2023/12/09 07:00:09;;;;;;;18.05;6.82;;;;;;;6.75;100.00;100848.38;7415050;19;19923;-75
2023/12/09 07:02:38;;;;;;;21.55;6.80;;;;;;;6.75;100.00;100842.16;7416036;19;20378;-76
2023/12/09 07:05:07;;;;;;;21.83;6.28;;;;;;;6.73;100.00;100836.13;7414901;19;19929;-75
2023/12/09 07:07:36;;;;;;;19.73;6.32;;;;;;;6.72;100.00;100843.31;7415877;19;19958;-75
2023/12/09 07:10:05;;;;;;;22.30;6.10;;;;;;;6.72;100.00;100831.78;7414513;19;19985;-75
2023/12/09 07:12:36;;;;;;;20.67;6.80;;;;;;;6.70;100.00;100837.28;7415669;19;20070;-75
2023/12/09 07:15:06;;;;;;;20.55;6.47;;;;;;;6.69;100.00;100826.69;7415608;19;19932;-76
2023/12/09 07:17:34;;;;;;;22.90;6.35;;;;;;;6.67;100.00;100829.56;7415156;19;19922;-76
2023/12/09 07:20:05;;;;;;;15.70;5.45;;;;;;;6.65;100.00;100825.31;7415694;19;19926;-76
2023/12/09 07:22:34;;;;;;;20.27;6.32;;;;;;;6.64;100.00;100824.50;7413287;19;19941;-76
2023/12/09 07:25:02;;;;;;;12.80;5.97;;;;;;;6.61;100.00;100808.75;7415367;19;19938;-75
2023/12/09 07:27:31;;;;;;;19.48;5.95;;;;;;;6.60;100.00;100816.94;7414495;19;20274;-76
2023/12/09 07:30:03;;;;;;;13.48;5.38;;;;;;;6.61;100.00;100823.94;7414525;19;19978;-75
2023/12/09 07:32:32;;;;;;;17.42;5.30;;;;;;;6.61;100.00;100813.25;7413599;19;19935;-75
2023/12/09 07:35:00;;;;;;;24.02;5.53;;;;;;;6.60;100.00;100803.56;7414663;19;19926;-75
2023/12/09 07:37:29;;;;;;;14.80;5.57;;;;;;;6.60;100.00;100811.59;7413172;19;20009;-76
2023/12/09 07:39:58;;;;;;;15.40;5.55;;;;;;;6.59;100.00;100802.72;7414139;19;19921;-76
2023/12/09 07:42:28;;;;;;;16.02;5.93;;;;;;;6.60;100.00;100798.22;7413743;19;19951;-75
2023/12/09 07:44:57;;;;;;;17.98;6.35;;;;;;;6.60;100.00;100804.38;7414730;19;19918;-76
2023/12/09 07:47:28;;;;;;;17.88;6.10;;;;;;;6.58;100.00;100794.81;7413527;19;20368;-74
2023/12/09 07:49:56;;;;;;;19.08;5.90;;;;;;;6.59;100.00;100800.03;7414447;19;19943;-74
2023/12/09 07:52:25;;;;;;;11.27;5.45;;;;;;;6.59;100.00;100793.84;7413562;19;20344;-74
2023/12/09 07:54:56;;;;;;;23.88;7.10;;;;;;;6.57;100.00;100796.66;7413475;19;19927;-76
2023/12/09 07:57:25;;;;;;;19.65;5.50;;;;;;;6.60;100.00;100796.34;7413888;19;19922;-75
2023/12/09 07:59:53;;;;;;;17.85;5.18;;;;;;;6.61;100.00;100786.47;7413189;19;20582;-75
2023/12/09 08:02:22;;;;;;;19.65;5.43;;;;;;;6.61;100.00;100786.47;7414192;19;19914;-75
2023/12/09 08:04:53;;;;;;;14.15;5.57;;;;;;;6.62;100.00;100778.31;7410119;19;19911;-75
2023/12/09 08:07:22;;;;;;;14.35;4.80;;;;;;;6.62;100.00;100780.16;7404213;19;19919;-75
2023/12/09 08:09:50;;;;;;;14.93;5.80;;;;;;;6.62;100.00;100775.63;7405061;19;19933;-75
2023/12/09 08:12:19;;;;;;;21.90;5.43;;;;;;;6.64;100.00;100775.50;7405722;19;19919;-75
2023/12/09 08:14:47;;;;;;;15.27;5.18;;;;;;;6.65;100.00;100772.63;7405021;19;20324;-75
2023/12/09 08:17:16;;;;;;;15.80;5.88;;;;;;;6.69;100.00;100767.81;7405685;19;19915;-75
2023/12/09 08:19:45;;;;;;;15.40;5.45;;;;;;;6.70;100.00;100766.81;7404507;19;19919;-75
2023/12/09 08:22:16;;;;;;;16.08;5.22;;;;;;;6.73;100.00;100758.50;7405692;19;19939;-75
2023/12/09 08:24:44;;;;;;;15.13;5.55;;;;;;;6.76;100.00;100760.88;7405333;19;20475;-76
2023/12/09 08:27:13;;;;;;;18.08;4.80;;;;;;;6.78;100.00;100756.19;7406123;19;19915;-74
2023/12/09 08:29:41;;;;;;;22.52;6.00;;;;;;;6.80;100.00;100752.38;7407060;19;19936;-74
2023/12/09 08:32:10;;;;;;;15.82;4.80;;;;;;;6.82;100.00;100765.56;7405631;19;20265;-75
2023/12/09 08:34:39;;;;;;;13.18;3.97;;;;;;;6.83;100.00;100748.53;7405466;19;19911;-75
2023/12/09 08:37:07;;;;;;;11.23;4.00;;;;;;;6.83;100.00;100751.19;7404416;19;20241;-75
2023/12/09 08:39:42;;;;;;;16.63;3.75;;;;;;;6.86;100.00;100747.38;7405246;19;19914;-75
2023/12/09 08:42:10;;;;;;;13.15;4.43;;;;;;;6.87;100.00;100749.03;7404337;19;19911;-75
2023/12/09 08:44:59;;;;;;;15.90;4.47;;;;;;;6.86;100.00;100737.50;7403567;19;19922;-75
2023/12/09 08:47:27;;;;;;;14.18;3.85;;;;;;;6.88;100.00;100740.88;7404722;19;19919;-75
2023/12/09 08:49:56;;;;;;;15.20;3.38;;;;;;;6.89;100.00;100728.31;7404532;19;19922;-75
2023/12/09 08:52:45;;;;;;;12.25;3.58;;;;;;;6.88;100.00;100722.13;7403491;19;19982;-75
2023/12/09 08:55:17;;;;;;;9.25;3.65;;;;;;;6.86;100.00;100720.63;7403904;19;19943;-75
2023/12/09 08:57:45;;;;;;;10.93;2.72;;;;;;;6.85;100.00;100714.41;7404520;19;20408;-75
2023/12/09 09:00:18;;;;;;;10.02;2.70;;;;;;;6.83;100.00;100713.72;7403798;19;19954;-75
2023/12/09 09:02:47;;;;;;;15.02;3.45;;;;;;;6.82;100.00;100714.72;7405037;19;19919;-75
2023/12/09 09:05:16;;;;;;;11.90;3.28;;;;;;;6.81;100.00;100707.69;7403366;19;19922;-75
2023/12/09 09:07:46;;;;;;;15.20;3.65;;;;;;;6.80;100.00;100711.38;7404694;19;20290;-75
2023/12/09 09:10:18;;;;;;;9.05;2.20;;;;;;;6.77;100.00;100712.50;7404655;19;19928;-75
2023/12/09 09:12:47;;;;;;;;;;;;;;;6.66;100.00;100718.13;7406628;19;19922;-75
2023/12/09 09:15:15;;;;;;;11.57;3.08;;;;;;;6.72;100.00;100711.31;7404193;19;19925;-75
2023/12/09 09:17:44;;;;;;;12.48;3.13;;;;;;;6.71;100.00;100721.16;7403496;19;19930;-75
2023/12/09 09:20:13;;;;;;;13.63;3.30;;;;;;;6.70;100.00;100711.44;7403855;19;19914;-75
2023/12/09 09:22:41;;;;;;;8.77;2.10;;;;;;;6.71;100.00;100707.78;7403520;19;19930;-76
2023/12/09 09:25:12;;;;;;;10.13;2.50;;;;;;;6.71;100.00;100696.22;7403852;19;19974;-75
2023/12/09 09:27:44;;;;;;;12.02;2.55;;;;;;;6.70;100.00;100683.84;7403408;19;19918;-75
2023/12/09 09:30:13;;;;;;;11.65;2.63;;;;;;;6.70;100.00;100684.69;7404583;19;19950;-75
2023/12/09 09:32:42;;;;;;;8.70;3.20;;;;;;;6.70;100.00;100681.16;7402594;19;19939;-75
2023/12/09 09:35:11;;;;;;;12.23;3.38;;;;;;;6.69;100.00;100674.13;7404407;19;20387;-75
2023/12/09 09:37:39;;;;;;;9.55;3.03;;;;;;;6.68;100.00;100659.09;7402658;19;19919;-75
2023/12/09 09:40:11;;;;;;;13.55;2.60;;;;;;;6.68;100.00;100659.09;7403252;19;19923;-75
2023/12/09 09:42:45;;;;;;;18.20;2.85;;;;;;;6.66;100.00;100647.69;7403193;19;19937;-75
2023/12/09 09:45:23;;;;;;;11.43;2.63;;;;;;;6.64;100.00;100653.22;7403198;19;19921;-75
2023/12/09 09:47:53;;;;;;;7.32;2.20;;;;;;;6.64;100.00;100641.66;7403462;19;19911;-75
2023/12/09 09:50:24;;;;;;;11.32;2.33;;;;;;;6.64;100.00;100641.66;7402645;19;21322;-75
2023/12/09 09:52:53;;;;;;;15.48;2.72;;;;;;;6.65;100.00;100630.78;7403970;19;19951;-75
2023/12/09 09:55:24;;;;;;;12.73;2.40;;;;;;;6.68;100.00;100633.16;7402431;19;19936;-75
2023/12/09 09:57:56;;;;;;;7.10;2.75;;;;;;;6.73;100.00;100630.81;7403212;19;20292;-75
2023/12/09 10:00:28;;;;;;;;;;;;;;;6.69;100.00;100623.25;7405845;19;19958;-75
2023/12/09 10:03:17;;;;;;;7.05;2.05;;;;;;;6.78;100.00;100615.13;7400489;19;19919;-75
2023/12/09 10:05:45;;;;;;;8.75;2.10;;;;;;;6.83;100.00;100615.50;7403066;19;19937;-74
2023/12/09 10:08:14;;;;;;;9.18;2.35;;;;;;;6.86;100.00;100611.66;7402663;19;19923;-74
2023/12/09 10:10:42;;;;;;;7.25;2.97;;;;;;;6.87;100.00;100602.63;7402603;19;20245;-74
2023/12/09 10:13:14;;;;;;;15.02;2.97;;;;;;;6.87;100.00;100597.28;7402074;19;19938;-75
2023/12/09 10:15:42;;;;;;;7.40;2.72;;;;;;;6.86;100.00;100586.75;7403201;19;19919;-74
2023/12/09 10:18:15;;;;;;;7.15;2.67;;;;;;;6.88;100.00;100587.41;7402385;19;20344;-74
2023/12/09 10:20:44;;;;;;;8.93;2.72;;;;;;;6.90;100.00;100570.19;7402680;19;19921;-75
2023/12/09 10:23:12;;;;;;;12.07;3.03;;;;;;;6.92;100.00;100553.94;7402221;19;19929;-75
2023/12/09 10:25:42;;;;;;;10.65;2.95;;;;;;;6.94;100.00;100544.78;7402171;19;19922;-75
2023/12/09 10:28:14;;;;;;;11.43;3.13;;;;;;;6.97;100.00;100533.72;7401019;19;19918;-75
2023/12/09 10:30:43;;;;;;;13.10;3.38;;;;;;;6.99;100.00;100518.31;7401314;19;20321;-75
2023/12/09 10:33:12;;;;;;;8.55;2.50;;;;;;;7.02;100.00;100512.66;7402017;19;19943;-75
2023/12/09 10:35:41;;;;;;;11.60;2.33;;;;;;;7.04;100.00;100504.44;7401420;19;20348;-75
2023/12/09 10:38:11;;;;;;;7.38;2.50;;;;;;;7.07;100.00;100499.63;7404156;19;19922;-74
2023/12/09 10:40:40;;;;;;;9.85;2.72;;;;;;;7.09;100.00;100492.25;7404000;19;19925;-75
2023/12/09 10:43:09;;;;;;;13.60;2.97;;;;;;;7.12;100.00;100489.22;7401994;19;19918;-75
2023/12/09 10:45:40;;;;;;;8.57;2.10;;;;;;;7.14;100.00;100479.19;7401000;19;19943;-75
2023/12/09 10:48:09;;;;;;;7.70;2.55;;;;;;;7.18;100.00;100480.53;7401528;19;19982;-75
2023/12/09 10:50:39;;;;;;;12.77;2.85;;;;;;;7.23;100.00;100472.03;7402009;19;20040;-75
2023/12/09 10:53:08;;;;;;;9.25;2.40;;;;;;;7.29;100.00;100466.81;7401943;19;19928;-75
2023/12/09 10:55:37;;;;;;;11.45;3.00;;;;;;;7.36;100.00;100447.41;7401849;19;20420;-75
2023/12/09 10:58:07;;;;;;;7.43;2.10;;;;;;;7.42;100.00;100447.56;7401888;19;20245;-75
2023/12/09 11:00:36;;;;;;;11.30;2.42;;;;;;;7.46;100.00;100435.53;7401562;19;19939;-75
2023/12/09 11:03:09;;;;;;;11.50;3.83;;;;;;;7.52;100.00;100421.44;7401138;19;19950;-75
2023/12/09 11:05:47;;;;;;;13.32;2.38;;;;;;;7.62;100.00;100414.09;7401875;19;19918;-75
2023/12/09 11:08:16;;;;;;;10.73;2.22;;;;;;;7.78;100.00;100412.38;7400550;19;19931;-75
2023/12/09 11:10:45;;;;;;;11.75;2.55;;;;;;;7.94;100.00;100415.03;7400937;19;19923;-76
2023/12/09 11:13:14;;;;;;;7.75;2.55;;;;;;;8.00;100.00;100400.94;7400428;19;19936;-74
2023/12/09 11:15:43;;;;;;;10.25;2.15;;;;;;;7.95;100.00;100398.75;7400327;19;19942;-75
2023/12/09 11:18:17;;;;;;;11.98;2.35;;;;;;;7.91;100.00;100394.75;7401141;19;19918;-75
2023/12/09 11:20:46;;;;;;;12.20;1.85;;;;;;;7.87;100.00;100388.06;7400925;19;19915;-75
2023/12/09 11:23:15;;;;;;;5.20;1.55;;;;;;;7.85;100.00;100382.03;7400654;19;19914;-75
2023/12/09 11:25:45;;;;;;;11.20;2.88;;;;;;;7.82;100.00;100374.31;7400193;19;19914;-75
2023/12/09 11:28:14;;;;;;;3.83;1.73;;;;;;;7.82;100.00;100370.78;7400708;19;19922;-75
2023/12/09 11:30:45;;;;;;;11.48;2.15;;;;;;;7.79;100.00;100365.78;7399958;19;20416;-75